Time;durP1;ratioP1;P1;durP2;ratioP2;P2;SDS_P1;SDS_P2;PMS_P1;PMS_P2;Temp;Humidity;BMP_temperature;BMP_pressure;BME280_temperature;BME280_humidity;BME280_pressure;Samples;Min_cycle;Max_cycle;Signal;HPM_P1;HPM_P2
2022/08/23 00:02:28;;;;;;;27.10;17.90;;;;;;;21.35;63.52;98515.57;106103;1276;98057;-67
2022/08/23 00:04:58;;;;;;;28.50;17.30;;;;;;;21.33;63.71;98514.76;105980;1276;112287;-68
2022/08/23 00:07:41;;;;;;;28.90;17.90;;;;;;;21.31;63.80;98518.10;106093;1276;95262;-68
2022/08/23 00:10:14;;;;;;;27.70;16.50;;;;;;;21.29;63.75;98517.39;105923;1277;107825;-68
2022/08/23 00:12:46;;;;;;;26.80;18.00;;;;;;;21.27;63.93;98521.06;105888;1278;97921;-68
2022/08/23 00:15:19;;;;;;;28.50;17.70;;;;;;;21.26;63.94;98521.05;105901;1277;97755;-65
2022/08/23 00:17:49;;;;;;;26.70;17.40;;;;;;;21.24;64.01;98518.21;105887;1277;111475;-67
2022/08/23 00:20:19;;;;;;;32.30;18.50;;;;;;;21.22;64.10;98523.98;105948;1276;95390;-67
2022/08/23 00:22:49;;;;;;;25.80;17.40;;;;;;;21.21;64.04;98524.70;106010;1277;108837;-65
2022/08/23 00:25:18;;;;;;;29.10;17.30;;;;;;;21.20;64.19;98524.42;105979;1278;96285;-66
2022/08/23 00:27:50;;;;;;;28.50;18.10;;;;;;;21.19;64.16;98517.02;105954;1278;97918;-68
2022/08/23 00:30:20;;;;;;;29.60;18.50;;;;;;;21.18;64.29;98513.80;106088;1276;112096;-69
2022/08/23 00:32:52;;;;;;;29.80;17.30;;;;;;;21.15;64.17;98506.03;105896;1277;95319;-68
2022/08/23 00:35:24;;;;;;;27.10;18.30;;;;;;;21.12;64.35;98514.98;105997;1276;107697;-69
2022/08/23 00:37:59;;;;;;;26.40;17.70;;;;;;;21.10;64.61;98512.02;106094;1276;97781;-68
2022/08/23 00:40:52;;;;;;;26.90;17.50;;;;;;;21.07;64.64;98510.52;106069;1276;97934;-68
2022/08/23 00:49:37;;;;;;;26.80;17.30;;;;;;;21.01;64.70;98509.71;105310;1284;108642;-68
2022/08/23 00:52:11;;;;;;;28.00;17.10;;;;;;;20.99;64.77;98501.92;105310;1284;97885;-66
2022/08/23 00:54:44;;;;;;;28.10;18.20;;;;;;;20.96;64.78;98500.57;105705;1278;97979;-68
2022/08/23 00:57:18;;;;;;;28.00;17.60;;;;;;;20.95;65.01;98504.89;105961;1278;111237;-67
2022/08/23 00:59:45;;;;;;;27.60;16.50;;;;;;;20.92;64.97;98504.65;105964;1276;97035;-67
2022/08/23 01:02:17;;;;;;;28.60;18.40;;;;;;;20.91;65.00;98502.14;106012;1275;108463;-67
2022/08/23 01:04:54;;;;;;;30.00;18.20;;;;;;;20.89;65.03;98507.61;105971;1278;97978;-68
2022/08/23 01:07:34;;;;;;;27.60;18.00;;;;;;;20.88;65.07;98511.20;105846;1279;97958;-69
2022/08/23 01:10:15;;;;;;;31.00;17.80;;;;;;;20.87;65.21;98505.30;105822;1277;112052;-67
2022/08/23 01:13:00;;;;;;;27.00;17.20;;;;;;;20.86;65.21;98500.55;105906;1275;97896;-69
2022/08/23 01:15:40;;;;;;;29.50;17.60;;;;;;;20.87;65.45;98502.13;105892;1277;107941;-71
2022/08/23 01:18:13;;;;;;;27.40;17.90;;;;;;;20.86;65.49;98502.92;106045;1276;95206;-68
2022/08/23 01:21:13;;;;;;;28.70;17.50;;;;;;;20.86;65.37;98500.80;105954;1276;97015;-66
2022/08/23 01:23:52;;;;;;;30.30;17.20;;;;;;;20.85;65.43;98501.95;105990;1276;111551;-68
2022/08/23 01:26:23;;;;;;;29.60;18.10;;;;;;;20.85;65.53;98504.52;105939;1278;97889;-69
2022/08/23 01:28:54;;;;;;;28.20;17.80;;;;;;;20.84;65.48;98496.11;105975;1277;107928;-67
2022/08/23 01:31:24;;;;;;;26.60;17.60;;;;;;;20.83;65.68;98496.48;105947;1276;99053;-68
2022/08/23 01:34:04;;;;;;;33.10;18.20;;;;;;;20.82;65.67;98494.23;105926;1276;97980;-67
2022/08/23 01:36:34;;;;;;;26.70;17.10;;;;;;;20.82;65.89;98486.52;105891;1278;111521;-67
2022/08/23 01:39:07;;;;;;;26.70;16.70;;;;;;;20.80;65.82;98485.02;105790;1278;95273;-68
2022/08/23 01:41:37;;;;;;;27.80;17.10;;;;;;;20.79;65.81;98478.36;105915;1278;107768;-67
2022/08/23 01:44:07;;;;;;;27.10;17.80;;;;;;;20.77;65.78;98476.95;105955;1278;99130;-67
2022/08/23 01:46:37;;;;;;;26.50;16.50;;;;;;;20.76;66.09;98470.46;105975;1277;97889;-67
2022/08/23 01:49:05;;;;;;;31.10;17.20;;;;;;;20.74;65.98;98478.58;105806;1276;112202;-68
2022/08/23 01:51:37;;;;;;;30.90;17.40;;;;;;;20.72;66.02;98498.38;105890;1278;98092;-68
2022/08/23 01:54:07;;;;;;;27.00;18.00;;;;;;;20.70;66.18;98511.77;105874;1276;107753;-68
2022/08/23 01:56:38;;;;;;;28.20;18.40;;;;;;;20.66;66.12;98513.28;106106;1276;97960;-68
2022/08/23 01:59:09;;;;;;;28.70;17.60;;;;;;;20.62;66.17;98518.06;106122;1276;97853;-69
2022/08/23 02:01:37;;;;;;;28.30;17.30;;;;;;;20.59;66.42;98519.79;106059;1276;112053;-67
2022/08/23 02:04:09;;;;;;;27.70;17.00;;;;;;;20.54;66.30;98522.14;106111;1276;98009;-67
2022/08/23 02:06:40;;;;;;;31.00;17.40;;;;;;;20.50;66.35;98525.29;106115;1277;108449;-66
2022/08/23 02:09:08;;;;;;;30.60;18.00;;;;;;;20.48;66.49;98531.56;105913;1277;98042;-68
2022/08/23 02:11:48;;;;;;;32.90;17.60;;;;;;;20.45;66.63;98537.51;105910;1276;97955;-67
2022/08/23 02:14:19;;;;;;;28.20;17.60;;;;;;;20.43;66.59;98535.87;105945;1276;112014;-66
2022/08/23 02:16:54;;;;;;;30.90;18.10;;;;;;;20.43;66.61;98534.63;105971;1276;97867;-66
2022/08/23 02:19:35;;;;;;;26.50;16.30;;;;;;;20.43;66.72;98530.71;106058;1276;107399;-67
2022/08/23 02:22:07;;;;;;;32.30;17.10;;;;;;;20.42;66.78;98530.31;105996;1276;97974;-68
2022/08/23 02:24:41;;;;;;;27.10;16.80;;;;;;;20.40;66.83;98526.52;106015;1277;97959;-68
2022/08/23 02:27:14;;;;;;;25.20;16.10;;;;;;;20.38;66.95;98521.14;105918;1277;111112;-67
2022/08/23 02:29:48;;;;;;;26.10;15.40;;;;;;;20.38;66.93;98523.71;106048;1276;97924;-68
2022/08/23 02:32:20;;;;;;;26.50;15.70;;;;;;;20.37;66.93;98518.42;105952;1276;108608;-68
2022/08/23 02:34:56;;;;;;;32.10;16.80;;;;;;;20.36;67.02;98519.09;105965;1277;98020;-68
2022/08/23 02:37:36;;;;;;;29.80;17.10;;;;;;;20.34;67.02;98517.35;105869;1278;97862;-66
2022/08/23 02:40:07;;;;;;;29.70;16.10;;;;;;;20.32;67.07;98519.77;105862;1277;112026;-67
2022/08/23 02:42:34;;;;;;;26.90;15.90;;;;;;;20.31;67.11;98523.13;105866;1277;97849;-67
2022/08/23 02:45:04;;;;;;;27.10;16.60;;;;;;;20.31;67.13;98521.92;105948;1278;108449;-68
2022/08/23 02:47:32;;;;;;;24.30;15.00;;;;;;;20.30;67.21;98524.77;105934;1278;98061;-67
2022/08/23 02:50:00;;;;;;;24.20;15.10;;;;;;;20.27;67.21;98525.77;105920;1278;97886;-66
2022/08/23 02:52:29;;;;;;;25.30;15.40;;;;;;;20.26;67.12;98526.51;105983;1276;112112;-66
2022/08/23 02:54:59;;;;;;;27.70;16.50;;;;;;;20.25;67.29;98522.84;105938;1278;97965;-67
2022/08/23 02:57:27;;;;;;;28.20;16.70;;;;;;;20.23;67.24;98524.80;105896;1276;108436;-67
2022/08/23 03:00:00;;;;;;;26.20;15.30;;;;;;;20.22;67.40;98527.12;105965;1276;97850;-68
2022/08/23 03:02:30;;;;;;;28.80;15.90;;;;;;;20.20;67.53;98533.41;105939;1274;95385;-66
2022/08/23 03:05:00;;;;;;;27.40;16.30;;;;;;;20.19;67.63;98536.10;105972;1276;111713;-67
2022/08/23 03:07:31;;;;;;;25.70;16.00;;;;;;;20.19;67.56;98540.20;106051;1276;95349;-70
2022/08/23 03:10:04;;;;;;;26.90;16.20;;;;;;;20.19;67.67;98545.11;105931;1276;107689;-67
2022/08/23 03:12:34;;;;;;;27.40;16.90;;;;;;;20.19;67.67;98548.19;105889;1276;98609;-68
2022/08/23 03:15:05;;;;;;;27.70;16.60;;;;;;;20.19;67.67;98551.27;105893;1278;98157;-67
2022/08/23 03:17:35;;;;;;;25.90;15.80;;;;;;;20.19;67.76;98553.88;105869;1276;111349;-67
2022/08/23 03:20:06;;;;;;;27.80;15.70;;;;;;;20.19;67.88;98558.58;105804;1278;97926;-69
2022/08/23 03:22:36;;;;;;;28.00;16.30;;;;;;;20.19;67.90;98566.83;105999;1278;107800;-67
2022/08/23 03:25:07;;;;;;;35.00;18.10;;;;;;;20.20;67.89;98570.55;106105;1277;95333;-66
2022/08/23 03:27:37;;;;;;;26.40;16.80;;;;;;;20.20;67.92;98577.73;106053;1275;98031;-66
2022/08/23 03:30:13;;;;;;;28.50;16.60;;;;;;;20.20;68.01;98579.42;105954;1276;112351;-67
2022/08/23 03:32:48;;;;;;;29.50;16.30;;;;;;;20.20;68.05;98579.05;105983;1276;98017;-68
2022/08/23 03:35:18;;;;;;;29.20;16.60;;;;;;;20.19;67.93;98580.88;105851;1278;108382;-68
2022/08/23 03:37:46;;;;;;;27.60;16.50;;;;;;;20.20;68.07;98578.35;105894;1276;97881;-69
2022/08/23 03:40:14;;;;;;;25.30;16.60;;;;;;;20.20;68.08;98580.64;105974;1274;97950;-68
2022/08/23 03:42:43;;;;;;;28.30;15.70;;;;;;;20.20;68.11;98583.30;106026;1275;111381;-67
2022/08/23 03:45:11;;;;;;;34.30;17.20;;;;;;;20.20;68.25;98583.42;106059;1277;97886;-67
2022/08/23 03:47:40;;;;;;;27.60;16.50;;;;;;;20.20;68.22;98580.92;106031;1276;108401;-67
2022/08/23 03:50:08;;;;;;;31.40;17.00;;;;;;;20.20;68.27;98586.13;105892;1278;96928;-67
2022/08/23 03:52:39;;;;;;;30.10;16.80;;;;;;;20.21;68.29;98583.20;103745;1277;2901464;-68
2022/08/23 03:55:07;;;;;;;25.80;16.20;;;;;;;20.22;68.48;98583.79;105818;1277;111378;-66
2022/08/23 03:57:35;;;;;;;33.30;16.70;;;;;;;20.23;68.48;98588.49;105986;1276;97993;-65
2022/08/23 04:00:09;;;;;;;28.90;16.50;;;;;;;20.24;68.49;98590.96;106001;1277;107733;-68
2022/08/23 04:02:37;;;;;;;26.00;16.20;;;;;;;20.25;68.39;98591.94;106002;1276;96588;-68
2022/08/23 04:05:09;;;;;;;26.70;15.80;;;;;;;20.26;68.51;98591.28;106086;1276;97876;-69
2022/08/23 04:07:41;;;;;;;26.20;16.30;;;;;;;20.23;68.44;98592.13;106136;1277;111390;-66
2022/08/23 04:10:13;;;;;;;25.60;15.80;;;;;;;20.19;68.55;98592.92;105959;1276;97836;-69
2022/08/23 04:12:43;;;;;;;29.60;16.70;;;;;;;20.19;68.71;98600.44;105998;1276;107463;-68
2022/08/23 04:15:13;;;;;;;25.80;15.20;;;;;;;20.19;68.65;98599.40;105858;1276;97976;-67
2022/08/23 04:17:42;;;;;;;27.50;15.80;;;;;;;20.18;68.73;98597.82;105863;1276;98629;-67
2022/08/23 04:20:11;;;;;;;28.10;15.80;;;;;;;20.17;68.66;98601.54;105850;1278;112184;-66
2022/08/23 04:22:39;;;;;;;28.40;16.70;;;;;;;20.18;68.93;98602.63;105939;1278;98076;-67
2022/08/23 04:25:09;;;;;;;33.90;16.40;;;;;;;20.18;68.84;98610.73;105967;1278;108472;-68
2022/08/23 04:27:59;;;;;;;30.30;16.30;;;;;;;20.18;68.84;98615.46;106081;1276;97982;-67
2022/08/23 04:30:32;;;;;;;27.20;15.00;;;;;;;20.19;68.93;98617.34;106126;1277;97885;-66
2022/08/23 04:33:00;;;;;;;24.60;15.40;;;;;;;20.20;69.01;98616.61;105958;1276;111496;-65
2022/08/23 04:35:29;;;;;;;24.40;15.70;;;;;;;20.21;69.04;98621.48;105946;1276;97964;-71
2022/08/23 04:37:59;;;;;;;27.70;16.00;;;;;;;20.23;68.96;98632.11;106088;1277;108439;-68
2022/08/23 04:43:18;;;;;;;27.10;16.50;;;;;;;20.26;69.02;98632.19;106122;1275;97992;-70
2022/08/23 04:45:47;;;;;;;25.90;16.10;;;;;;;20.27;69.04;98636.33;106099;1276;112324;-69
2022/08/23 04:48:19;;;;;;;26.30;15.70;;;;;;;20.29;69.18;98630.20;106177;1274;95279;-67
2022/08/23 04:50:46;;;;;;;26.20;16.40;;;;;;;20.30;69.22;98627.85;105967;1276;107756;-67
2022/08/23 04:53:16;;;;;;;28.00;15.50;;;;;;;20.31;69.25;98633.15;106065;1278;97984;-67
2022/08/23 04:55:44;;;;;;;29.10;16.20;;;;;;;20.32;69.29;98636.86;106009;1277;97863;-68
2022/08/23 04:58:13;;;;;;;26.50;15.30;;;;;;;20.32;69.25;98640.90;105977;1276;112024;-68
2022/08/23 05:00:41;;;;;;;25.30;14.50;;;;;;;20.30;69.12;98645.92;106087;1276;95301;-67
2022/08/23 05:03:19;;;;;;;25.50;14.50;;;;;;;20.26;69.21;98648.33;105999;1276;108371;-69
2022/08/23 05:05:48;;;;;;;25.80;13.90;;;;;;;20.27;69.22;98652.86;105903;1276;96220;-69
2022/08/23 05:08:17;;;;;;;24.40;14.70;;;;;;;20.30;69.42;98655.23;105986;1276;97987;-69
2022/08/23 05:10:46;;;;;;;26.00;14.00;;;;;;;20.33;69.38;98659.19;105761;1278;112690;-72
2022/08/23 05:13:14;;;;;;;23.80;14.30;;;;;;;20.36;69.50;98661.83;105873;1279;97920;-71
2022/08/23 05:15:45;;;;;;;24.70;13.80;;;;;;;20.39;69.22;98662.67;105964;1277;108273;-70
2022/08/23 05:18:15;;;;;;;24.20;14.20;;;;;;;20.36;69.18;98667.70;105850;1277;97988;-71
2022/08/23 05:20:45;;;;;;;27.70;15.00;;;;;;;20.30;69.10;98664.02;105960;1278;97900;-72
2022/08/23 05:23:15;;;;;;;23.30;13.80;;;;;;;20.25;69.18;98665.35;105794;1278;111596;-71
2022/08/23 05:25:49;;;;;;;26.60;15.50;;;;;;;20.24;69.47;98667.30;105792;1278;97833;-72
2022/08/23 05:28:30;;;;;;;27.10;15.60;;;;;;;20.25;69.45;98665.41;105716;1278;108291;-71
2022/08/23 05:31:00;;;;;;;29.60;15.60;;;;;;;20.27;69.50;98666.06;105940;1277;97989;-70
2022/08/23 05:33:33;;;;;;;27.40;15.60;;;;;;;20.30;69.63;98667.36;105953;1277;97872;-71
2022/08/23 05:36:04;;;;;;;25.10;15.40;;;;;;;20.35;69.80;98662.92;105832;1276;112133;-71
2022/08/23 05:38:33;;;;;;;27.90;15.10;;;;;;;20.43;69.70;98664.48;105823;1278;95527;-71
2022/08/23 05:41:03;;;;;;;25.80;14.30;;;;;;;20.53;69.61;98662.21;105828;1278;107755;-73
2022/08/23 05:43:34;;;;;;;26.80;16.10;;;;;;;20.64;69.69;98665.89;105820;1277;97905;-72
2022/08/23 05:46:15;;;;;;;26.50;15.40;;;;;;;20.74;69.73;98669.91;105792;1277;97866;-73
2022/08/23 05:48:51;;;;;;;28.00;16.00;;;;;;;20.87;69.84;98668.09;105879;1277;111389;-71
2022/08/23 05:51:27;;;;;;;28.00;18.00;;;;;;;20.94;69.66;98669.15;105846;1277;97890;-72
2022/08/23 05:54:04;;;;;;;29.90;17.00;;;;;;;21.01;69.89;98671.96;106005;1277;107813;-72
2022/08/23 05:56:37;;;;;;;27.70;17.00;;;;;;;21.06;69.91;98679.48;105923;1278;95234;-73
2022/08/23 05:59:09;;;;;;;30.20;17.00;;;;;;;21.09;69.71;98676.65;105988;1277;97983;-74
2022/08/23 06:01:43;;;;;;;26.90;16.60;;;;;;;21.09;69.60;98682.88;105882;1278;110270;-72
2022/08/23 06:04:13;;;;;;;28.10;16.80;;;;;;;21.07;69.65;98687.36;106152;1277;97971;-76
2022/08/23 06:06:43;;;;;;;29.70;17.80;;;;;;;21.07;69.69;98688.98;105917;1277;108008;-76
2022/08/23 06:09:16;;;;;;;25.80;17.40;;;;;;;21.07;69.50;98693.76;105957;1277;97859;-78
2022/08/23 06:11:47;;;;;;;;;;;;;;;21.08;69.75;98694.36;106101;1278;97990;-77
2022/08/23 06:14:16;;;;;;;26.20;17.20;;;;;;;21.08;70.12;98694.45;105965;1277;111236;-78
2022/08/23 06:16:48;;;;;;;28.70;18.00;;;;;;;21.17;70.07;98694.71;105981;1276;95563;-79
2022/08/23 06:19:24;;;;;;;30.60;17.20;;;;;;;21.23;69.85;98695.00;106004;1275;107774;-77
2022/08/23 06:21:52;;;;;;;31.50;20.40;;;;;;;21.30;70.06;98696.03;105894;1277;97894;-77
2022/08/23 06:24:22;;;;;;;30.90;18.80;;;;;;;21.33;69.85;98692.00;106056;1274;98627;-77
2022/08/23 06:26:51;;;;;;;30.60;18.50;;;;;;;21.35;70.06;98689.73;105974;1275;111885;-78
2022/08/23 06:29:20;;;;;;;28.00;18.70;;;;;;;21.37;69.69;98693.30;105919;1277;97889;-78
2022/08/23 06:31:52;;;;;;;26.90;18.40;;;;;;;21.37;69.73;98694.61;105943;1277;107510;-78
2022/08/23 06:34:31;;;;;;;23.90;16.20;;;;;;;21.40;70.13;98694.86;106006;1276;97987;-75
2022/08/23 06:37:04;;;;;;;28.00;15.60;;;;;;;21.45;69.69;98696.45;106100;1278;97838;-75
2022/08/23 06:39:32;;;;;;;25.80;14.20;;;;;;;21.51;69.97;98698.42;105895;1277;111537;-68
2022/08/23 06:42:11;;;;;;;26.20;14.60;;;;;;;21.59;69.86;98699.14;105926;1277;97887;-69
2022/08/23 06:44:59;;;;;;;26.30;12.70;;;;;;;21.68;69.77;98698.55;105965;1277;106910;-69
2022/08/23 06:47:29;;;;;;;30.00;14.80;;;;;;;21.79;70.03;98701.07;105872;1278;98038;-68
2022/08/23 06:50:00;;;;;;;24.40;13.60;;;;;;;21.91;69.91;98692.81;105888;1278;97920;-68
2022/08/23 06:52:29;;;;;;;26.20;14.00;;;;;;;22.04;69.87;98696.50;105829;1277;111232;-69
2022/08/23 06:55:01;;;;;;;29.40;14.40;;;;;;;22.14;69.78;98703.38;105976;1277;98614;-71
2022/08/23 06:57:31;;;;;;;24.90;13.90;;;;;;;22.18;69.67;98705.59;106010;1278;107761;-69
2022/08/23 07:00:00;;;;;;;23.70;13.40;;;;;;;22.26;69.86;98705.42;105922;1278;97988;-70
2022/08/23 07:02:30;;;;;;;26.20;12.90;;;;;;;22.40;69.73;98708.49;106013;1278;97960;-69
2022/08/23 07:05:02;;;;;;;22.40;12.90;;;;;;;22.54;69.83;98705.95;105880;1276;111950;-69
2022/08/23 07:07:29;;;;;;;23.70;12.60;;;;;;;22.69;69.52;98704.14;106036;1278;97756;-69
2022/08/23 07:10:14;;;;;;;22.50;12.30;;;;;;;22.89;69.58;98709.79;106022;1277;108360;-69
2022/08/23 07:12:44;;;;;;;25.20;13.00;;;;;;;23.03;69.77;98711.69;105973;1277;97848;-69
2022/08/23 07:15:13;;;;;;;23.20;11.60;;;;;;;23.18;69.62;98708.67;105862;1278;95294;-69
2022/08/23 07:17:42;;;;;;;26.30;12.40;;;;;;;23.38;69.53;98714.11;105834;1277;112146;-69
2022/08/23 07:20:11;;;;;;;26.10;11.70;;;;;;;23.64;69.29;98714.80;105864;1277;96259;-69
2022/08/23 07:22:40;;;;;;;23.40;11.30;;;;;;;24.09;68.92;98715.98;105975;1277;107357;-69
2022/08/23 07:25:08;;;;;;;21.90;11.20;;;;;;;24.46;68.88;98718.56;105976;1275;97940;-67
2022/08/23 07:27:38;;;;;;;21.20;11.10;;;;;;;24.68;68.98;98722.80;106077;1275;98057;-67
2022/08/23 07:30:10;;;;;;;27.60;11.10;;;;;;;24.84;68.98;98724.67;106128;1277;112050;-67
2022/08/23 07:32:39;;;;;;;19.90;11.10;;;;;;;24.83;68.89;98725.05;106001;1277;96235;-66
2022/08/23 07:35:07;;;;;;;21.80;10.90;;;;;;;24.85;69.01;98726.18;105971;1277;107367;-67
2022/08/23 07:37:36;;;;;;;20.30;10.70;;;;;;;24.88;68.79;98727.97;105884;1277;98550;-67
2022/08/23 07:40:09;;;;;;;22.90;11.10;;;;;;;24.91;68.88;98718.88;105894;1277;98712;-67
2022/08/23 07:42:48;;;;;;;24.70;11.70;;;;;;;25.05;68.68;98720.47;105869;1277;112052;-68
2022/08/23 07:45:18;;;;;;;19.90;11.30;;;;;;;25.25;68.49;98721.85;105975;1277;95414;-68
2022/08/23 07:47:50;;;;;;;22.70;11.40;;;;;;;25.44;68.17;98722.67;105983;1277;108901;-67
2022/08/23 07:50:18;;;;;;;23.00;10.20;;;;;;;25.54;68.27;98724.21;105936;1277;97900;-67
2022/08/23 07:52:48;;;;;;;22.00;11.30;;;;;;;25.55;68.25;98720.02;105919;1277;97864;-67
2022/08/23 07:55:20;;;;;;;20.80;10.80;;;;;;;25.58;68.34;98730.40;106014;1277;112119;-68
2022/08/23 07:57:47;;;;;;;19.60;10.70;;;;;;;25.58;68.03;98731.48;105959;1278;97947;-68
2022/08/23 08:00:17;;;;;;;20.90;9.90;;;;;;;25.58;67.92;98731.11;105945;1277;107783;-69
2022/08/23 08:02:47;;;;;;;21.90;9.70;;;;;;;25.57;67.88;98730.48;105947;1277;95389;-66
2022/08/23 08:05:18;;;;;;;19.60;10.00;;;;;;;25.55;67.68;98730.91;105984;1277;98770;-66
2022/08/23 08:07:50;;;;;;;20.80;10.60;;;;;;;25.55;67.52;98734.60;105907;1277;112022;-67
2022/08/23 08:10:18;;;;;;;24.10;10.90;;;;;;;25.60;67.55;98737.14;105936;1277;96380;-68
2022/08/23 08:12:47;;;;;;;23.70;11.30;;;;;;;25.69;67.62;98735.56;105889;1277;107334;-67
2022/08/23 08:15:17;;;;;;;27.10;11.60;;;;;;;25.72;67.30;98739.56;105841;1277;97909;-67
2022/08/23 08:17:49;;;;;;;26.40;12.00;;;;;;;25.77;67.34;98739.34;105692;1277;97861;-69
2022/08/23 08:20:20;;;;;;;22.80;11.60;;;;;;;25.92;67.24;98741.30;105879;1277;111479;-68
2022/08/23 08:22:49;;;;;;;23.60;10.90;;;;;;;26.42;66.42;98738.52;105991;1276;97912;-67
2022/08/23 08:25:26;;;;;;;19.70;9.80;;;;;;;26.87;66.36;98740.10;105812;1277;108148;-66
2022/08/23 08:27:58;;;;;;;26.70;12.40;;;;;;;27.13;66.99;98741.00;106022;1277;97890;-67
2022/08/23 08:30:27;;;;;;;21.40;11.00;;;;;;;27.35;66.75;98742.87;106017;1277;97900;-69
2022/08/23 08:32:57;;;;;;;21.20;9.50;;;;;;;27.56;65.81;98740.13;105978;1277;111989;-68
2022/08/23 08:35:25;;;;;;;19.80;10.20;;;;;;;28.17;65.77;98740.48;106017;1277;95343;-66
2022/08/23 08:37:55;;;;;;;20.00;10.10;;;;;;;28.68;66.17;98740.35;105884;1277;110712;-67
2022/08/23 08:40:32;;;;;;;21.00;9.30;;;;;;;28.90;65.37;98741.73;105745;1277;98021;-70
2022/08/23 08:43:28;;;;;;;20.20;9.30;;;;;;;29.25;65.43;98740.39;105936;1276;95198;-70
2022/08/23 08:46:22;;;;;;;21.70;8.80;;;;;;;29.88;64.92;98739.86;105879;1277;111516;-71
2022/08/23 08:48:58;;;;;;;20.40;8.20;;;;;;;30.05;64.85;98739.69;105858;1277;98256;-73
2022/08/23 08:51:56;;;;;;;24.10;9.60;;;;;;;30.13;64.95;98736.83;105909;1277;107671;-68
2022/08/23 08:54:28;;;;;;;20.30;8.20;;;;;;;30.12;64.46;98739.88;105604;1274;96436;-69
2022/08/23 08:57:02;;;;;;;23.60;8.10;;;;;;;30.09;64.03;98739.65;106066;1277;97887;-68
2022/08/23 08:59:54;;;;;;;18.40;8.50;;;;;;;30.20;63.83;98741.21;105966;1276;112020;-71
2022/08/23 09:02:28;;;;;;;18.20;8.30;;;;;;;30.44;63.05;98738.41;106072;1276;98437;-69
2022/08/23 09:05:19;;;;;;;21.90;8.30;;;;;;;30.57;62.70;98740.77;105875;1276;107669;-69
2022/08/23 09:08:05;;;;;;;18.70;7.30;;;;;;;30.74;62.59;98739.43;105824;1277;95290;-69
2022/08/23 09:10:44;;;;;;;20.00;7.40;;;;;;;30.69;62.60;98749.40;106044;1276;97995;-70
2022/08/23 09:13:43;;;;;;;14.40;6.80;;;;;;;30.52;62.41;98751.27;105936;1276;111506;-68
2022/08/23 09:16:36;;;;;;;20.40;7.50;;;;;;;30.27;61.97;98750.98;106023;1277;95373;-71
2022/08/23 09:19:06;;;;;;;19.10;7.00;;;;;;;30.13;62.11;98750.76;106031;1277;107699;-73
2022/08/23 09:21:53;;;;;;;19.70;7.20;;;;;;;29.89;61.56;98750.15;105960;1276;97861;-72
2022/08/23 09:24:23;;;;;;;19.10;6.80;;;;;;;29.63;61.19;98749.55;105918;1277;97926;-70
2022/08/23 09:26:52;;;;;;;16.40;6.70;;;;;;;29.56;61.08;98749.91;105814;1277;110804;-69
2022/08/23 09:29:28;;;;;;;18.10;6.80;;;;;;;29.57;60.96;98746.52;105898;1277;98286;-69
2022/08/23 09:32:03;;;;;;;19.50;6.70;;;;;;;29.57;60.74;98746.86;105905;1277;107808;-70
2022/08/23 09:34:35;;;;;;;16.50;6.90;;;;;;;29.78;60.22;98743.58;105905;1277;97809;-68
2022/08/23 09:37:19;;;;;;;18.20;6.10;;;;;;;30.39;59.85;98741.30;105908;1277;97847;-68
2022/08/23 09:40:12;;;;;;;16.60;6.40;;;;;;;31.08;59.68;98736.38;106148;1276;111398;-72
2022/08/23 09:42:42;;;;;;;19.20;5.80;;;;;;;31.76;59.12;98732.14;105844;1277;99110;-71
2022/08/23 09:45:36;;;;;;;17.40;5.80;;;;;;;32.30;59.11;98730.34;106071;1276;108896;-67
2022/08/23 09:48:06;;;;;;;18.70;6.10;;;;;;;33.04;58.70;98729.89;105827;1277;97783;-67
2022/08/23 09:50:49;;;;;;;21.40;6.80;;;;;;;33.50;58.45;98731.73;105936;1277;97868;-69
2022/08/23 09:53:26;;;;;;;14.30;5.40;;;;;;;33.58;58.07;98736.00;106049;1276;110447;-68
2022/08/23 09:55:57;;;;;;;19.90;5.50;;;;;;;33.61;57.81;98735.30;106120;1277;98398;-67
2022/08/23 09:58:41;;;;;;;19.30;6.10;;;;;;;33.61;57.68;98733.09;105938;1277;108446;-68
2022/08/23 10:01:18;;;;;;;21.80;5.50;;;;;;;33.35;57.48;98732.78;106078;1277;96353;-69
2022/08/23 10:04:11;;;;;;;17.10;6.00;;;;;;;33.39;57.36;98728.46;105951;1276;97861;-70
2022/08/23 10:06:42;;;;;;;18.10;5.90;;;;;;;33.31;56.83;98729.77;105833;1277;112555;-68
2022/08/23 10:09:26;;;;;;;17.60;5.70;;;;;;;33.27;56.89;98726.35;105930;1276;97973;-68
2022/08/23 10:11:56;;;;;;;16.60;5.40;;;;;;;33.27;56.53;98724.41;105948;1276;106028;-68
2022/08/23 10:14:29;;;;;;;15.30;5.60;;;;;;;33.24;56.44;98726.67;105900;1276;97905;-69
2022/08/23 10:17:16;;;;;;;24.10;6.30;;;;;;;33.21;55.95;98731.19;105954;1276;96306;-68
2022/08/23 10:20:04;;;;;;;18.70;5.40;;;;;;;33.23;55.44;98734.21;105908;1277;112133;-68
2022/08/23 10:22:44;;;;;;;18.30;5.60;;;;;;;33.14;55.03;98735.34;105930;1277;98411;-70
2022/08/23 10:25:24;;;;;;;24.20;6.50;;;;;;;32.93;54.88;98734.23;105983;1276;107699;-68
2022/08/23 10:31:29;;;;;;;21.40;5.60;;;;;;;32.73;54.39;98730.41;105342;1277;96508;-69
2022/08/23 10:34:10;;;;;;;20.70;5.20;;;;;;;32.67;54.13;98731.52;105968;1276;112121;-68
2022/08/23 10:37:15;;;;;;;20.50;5.50;;;;;;;32.58;53.61;98729.55;106003;1276;96852;-68
2022/08/23 10:39:58;;;;;;;26.40;6.40;;;;;;;32.32;53.69;98725.12;106002;1276;108569;-69
2022/08/23 10:42:49;;;;;;;21.20;5.80;;;;;;;31.93;53.20;98728.13;105929;1276;97983;-68
2022/08/23 10:45:37;;;;;;;26.10;5.90;;;;;;;31.82;53.02;98730.23;106051;1276;97861;-69
2022/08/23 10:48:28;;;;;;;23.90;4.90;;;;;;;31.76;52.86;98725.34;105949;1276;112611;-67
2022/08/23 10:51:10;;;;;;;27.20;6.80;;;;;;;31.77;52.73;98720.99;105987;1277;98384;-69
2022/08/23 10:53:45;;;;;;;25.90;5.90;;;;;;;31.77;52.94;98727.60;105957;1276;107531;-69
2022/08/23 10:56:19;;;;;;;31.00;5.90;;;;;;;31.78;52.17;98723.67;105949;1276;98006;-67
2022/08/23 10:58:59;;;;;;;31.70;6.10;;;;;;;31.77;52.23;98722.94;105982;1274;97872;-67
2022/08/23 11:01:56;;;;;;;27.70;5.00;;;;;;;31.75;52.20;98723.83;105893;1276;111052;-68
2022/08/23 11:04:48;;;;;;;26.30;6.00;;;;;;;31.66;51.89;98724.80;105642;1276;98346;-67
2022/08/23 11:07:27;;;;;;;34.70;6.50;;;;;;;31.64;51.70;98720.61;105952;1276;106924;-67
2022/08/23 11:10:41;;;;;;;32.80;6.40;;;;;;;31.61;51.66;98721.85;105961;1277;97966;-67
2022/08/23 11:13:28;;;;;;;33.20;5.90;;;;;;;31.56;51.10;98718.40;105915;1276;97855;-67
2022/08/23 11:16:15;;;;;;;33.20;7.20;;;;;;;31.57;51.14;98722.63;105992;1276;111304;-68
2022/08/23 11:18:48;;;;;;;27.50;7.30;;;;;;;31.58;51.04;98724.13;105979;1276;97791;-68
2022/08/23 11:21:16;;;;;;;31.80;6.50;;;;;;;31.51;50.77;98724.11;106055;1276;106105;-68
2022/08/23 11:23:53;;;;;;;33.80;6.50;;;;;;;31.49;50.63;98719.52;106036;1276;96400;-68
2022/08/23 11:26:22;;;;;;;26.50;7.00;;;;;;;31.50;50.74;98714.86;106092;1276;97926;-67
2022/08/23 11:29:06;;;;;;;35.20;6.40;;;;;;;31.46;50.48;98718.67;105967;1276;112115;-68
2022/08/23 11:32:02;;;;;;;42.10;7.30;;;;;;;31.39;50.23;98721.34;106021;1277;98110;-68
2022/08/23 11:34:42;;;;;;;31.40;7.70;;;;;;;31.43;50.31;98721.49;105887;1276;108394;-69
2022/08/23 11:37:19;;;;;;;37.60;7.50;;;;;;;31.40;50.19;98720.35;105824;1276;95431;-68
2022/08/23 11:39:57;;;;;;;39.30;8.10;;;;;;;31.32;50.07;98716.88;106056;1276;98023;-68
2022/08/23 11:42:51;;;;;;;42.90;8.40;;;;;;;31.15;49.77;98722.50;105875;1276;111862;-68
2022/08/23 11:45:22;;;;;;;35.00;6.80;;;;;;;31.09;49.80;98718.54;105820;1276;97120;-68
2022/08/23 11:48:08;;;;;;;40.90;7.60;;;;;;;31.11;49.92;98717.36;105878;1276;108374;-66
2022/08/23 11:50:49;;;;;;;29.70;7.00;;;;;;;31.12;49.80;98719.89;105837;1276;98001;-67
2022/08/23 11:53:29;;;;;;;35.30;7.00;;;;;;;31.05;49.62;98714.75;105908;1276;96460;-68
2022/08/23 11:56:25;;;;;;;29.50;6.20;;;;;;;31.01;49.67;98712.61;106081;1276;112014;-68